sensor_id;sensor_type;location;lat;lon;timestamp;pressure;altitude;pressure_sealevel;temperature;humidity
80511;BME280;69840;53.040;8.600;2023-05-10T00:01:02;100799.03;;;14.53;90.31
80511;BME280;69840;53.040;8.600;2023-05-10T00:03:30;100792.06;;;14.52;90.12
80511;BME280;69840;53.040;8.600;2023-05-10T00:05:57;100798.59;;;14.49;89.92
80511;BME280;69840;53.040;8.600;2023-05-10T00:08:25;100793.47;;;14.48;90.27
80511;BME280;69840;53.040;8.600;2023-05-10T00:10:52;100793.47;;;14.48;90.25
80511;BME280;69840;53.040;8.600;2023-05-10T00:13:20;100791.84;;;14.47;90.61
80511;BME280;69840;53.040;8.600;2023-05-10T00:15:47;100794.50;;;14.47;90.34
80511;BME280;69840;53.040;8.600;2023-05-10T00:18:15;100797.34;;;14.45;89.87
80511;BME280;69840;53.040;8.600;2023-05-10T00:20:43;100798.16;;;14.46;90.20
80511;BME280;69840;53.040;8.600;2023-05-10T00:23:10;100791.63;;;14.48;90.27
80511;BME280;69840;53.040;8.600;2023-05-10T00:25:38;100788.97;;;14.48;90.33
80511;BME280;69840;53.040;8.600;2023-05-10T00:28:05;100792.44;;;14.49;90.23
80511;BME280;69840;53.040;8.600;2023-05-10T00:30:33;100785.28;;;14.49;90.26
80511;BME280;69840;53.040;8.600;2023-05-10T00:33:01;100785.75;;;14.53;90.26
80511;BME280;69840;53.040;8.600;2023-05-10T00:35:28;100780.59;;;14.51;89.82
80511;BME280;69840;53.040;8.600;2023-05-10T00:37:56;100779.16;;;14.49;89.99
80511;BME280;69840;53.040;8.600;2023-05-10T00:40:23;100779.53;;;14.46;89.75
80511;BME280;69840;53.040;8.600;2023-05-10T00:42:55;100770.94;;;14.44;90.64
80511;BME280;69840;53.040;8.600;2023-05-10T00:45:23;100761.31;;;14.43;90.64
80511;BME280;69840;53.040;8.600;2023-05-10T00:47:51;100771.13;;;14.42;90.66
80511;BME280;69840;53.040;8.600;2023-05-10T00:50:19;100764.50;;;14.38;90.48
80511;BME280;69840;53.040;8.600;2023-05-10T00:52:46;100766.69;;;14.34;91.56
80511;BME280;69840;53.040;8.600;2023-05-10T00:55:14;100765.50;;;14.37;91.76
80511;BME280;69840;53.040;8.600;2023-05-10T00:57:42;100761.81;;;14.38;91.36
80511;BME280;69840;53.040;8.600;2023-05-10T01:00:10;100761.19;;;14.36;91.58
80511;BME280;69840;53.040;8.600;2023-05-10T01:02:37;100770.81;;;14.37;91.34
80511;BME280;69840;53.040;8.600;2023-05-10T01:05:05;100764.31;;;14.39;91.37
80511;BME280;69840;53.040;8.600;2023-05-10T01:07:33;100761.31;;;14.43;91.11
80511;BME280;69840;53.040;8.600;2023-05-10T01:10:00;100762.75;;;14.45;90.91
80511;BME280;69840;53.040;8.600;2023-05-10T01:12:28;100754.78;;;14.45;90.88
80511;BME280;69840;53.040;8.600;2023-05-10T01:14:55;100752.13;;;14.45;90.53
80511;BME280;69840;53.040;8.600;2023-05-10T01:17:24;100752.13;;;14.45;90.54
80511;BME280;69840;53.040;8.600;2023-05-10T01:19:51;100747.63;;;14.46;90.28
80511;BME280;69840;53.040;8.600;2023-05-10T01:28:46;100741.38;;;14.38;89.52
80511;BME280;69840;53.040;8.600;2023-05-10T01:34:25;100748.13;;;14.20;86.43
80511;BME280;69840;53.040;8.600;2023-05-10T01:39:36;100753.63;;;13.97;85.61
80511;BME280;69840;53.040;8.600;2023-05-10T01:42:20;100750.22;;;13.88;86.22
80511;BME280;69840;53.040;8.600;2023-05-10T01:45:18;100754.91;;;13.72;85.16
80511;BME280;69840;53.040;8.600;2023-05-10T01:47:50;100749.91;;;13.62;85.01
80511;BME280;69840;53.040;8.600;2023-05-10T01:50:24;100754.09;;;13.42;85.07
80511;BME280;69840;53.040;8.600;2023-05-10T01:52:56;100750.81;;;13.40;86.19
80511;BME280;69840;53.040;8.600;2023-05-10T01:55:28;100746.72;;;13.37;86.69
80511;BME280;69840;53.040;8.600;2023-05-10T01:58:04;100747.25;;;13.32;86.49
80511;BME280;69840;53.040;8.600;2023-05-10T02:00:33;100744.50;;;13.26;87.36
80511;BME280;69840;53.040;8.600;2023-05-10T02:03:08;100742.66;;;13.26;87.75
80511;BME280;69840;53.040;8.600;2023-05-10T02:05:38;100745.66;;;13.23;87.46
80511;BME280;69840;53.040;8.600;2023-05-10T02:08:06;100741.28;;;13.16;86.47
80511;BME280;69840;53.040;8.600;2023-05-10T02:10:36;100741.59;;;13.13;86.83
80511;BME280;69840;53.040;8.600;2023-05-10T02:13:05;100738.75;;;12.99;86.18
80511;BME280;69840;53.040;8.600;2023-05-10T02:15:34;100736.94;;;13.00;86.94
80511;BME280;69840;53.040;8.600;2023-05-10T02:18:02;100738.28;;;12.96;86.93
80511;BME280;69840;53.040;8.600;2023-05-10T02:20:31;100746.41;;;12.94;86.78
80511;BME280;69840;53.040;8.600;2023-05-10T02:23:00;100751.69;;;12.80;86.69
80511;BME280;69840;53.040;8.600;2023-05-10T02:25:30;100744.47;;;12.74;85.79
80511;BME280;69840;53.040;8.600;2023-05-10T02:28:00;100747.66;;;12.69;85.71
80511;BME280;69840;53.040;8.600;2023-05-10T02:30:29;100754.78;;;12.69;85.30
80511;BME280;69840;53.040;8.600;2023-05-10T02:32:58;100749.91;;;12.57;85.62
80511;BME280;69840;53.040;8.600;2023-05-10T02:35:27;100755.22;;;12.57;86.01
80511;BME280;69840;53.040;8.600;2023-05-10T02:37:56;100748.91;;;12.58;85.73
80511;BME280;69840;53.040;8.600;2023-05-10T02:40:25;100751.72;;;12.57;85.95
80511;BME280;69840;53.040;8.600;2023-05-10T02:42:56;100748.78;;;12.52;87.28
80511;BME280;69840;53.040;8.600;2023-05-10T02:45:28;100751.47;;;12.44;87.49
80511;BME280;69840;53.040;8.600;2023-05-10T02:47:58;100747.19;;;12.43;87.72
80511;BME280;69840;53.040;8.600;2023-05-10T02:50:27;100749.03;;;12.42;86.46
80511;BME280;69840;53.040;8.600;2023-05-10T02:53:00;100752.13;;;12.46;86.37
80511;BME280;69840;53.040;8.600;2023-05-10T02:55:32;100756.31;;;12.40;86.68
80511;BME280;69840;53.040;8.600;2023-05-10T02:58:00;100754.66;;;12.39;86.32
80511;BME280;69840;53.040;8.600;2023-05-10T03:00:28;100748.19;;;12.42;85.40
80511;BME280;69840;53.040;8.600;2023-05-10T03:02:56;100741.41;;;12.39;85.54
80511;BME280;69840;53.040;8.600;2023-05-10T03:05:25;100737.47;;;12.35;86.06
80511;BME280;69840;53.040;8.600;2023-05-10T03:07:52;100740.13;;;12.35;87.10
80511;BME280;69840;53.040;8.600;2023-05-10T03:10:26;100738.34;;;12.27;87.32
80511;BME280;69840;53.040;8.600;2023-05-10T03:13:18;100740.19;;;12.27;87.47
80511;BME280;69840;53.040;8.600;2023-05-10T03:16:39;100731.28;;;12.20;87.45
80511;BME280;69840;53.040;8.600;2023-05-10T03:19:02;100740.09;;;12.12;87.66
80511;BME280;69840;53.040;8.600;2023-05-10T03:21:36;100734.78;;;12.12;87.92
80511;BME280;69840;53.040;8.600;2023-05-10T03:24:07;100740.63;;;12.08;86.56
80511;BME280;69840;53.040;8.600;2023-05-10T03:26:37;100737.16;;;12.07;86.78
80511;BME280;69840;53.040;8.600;2023-05-10T03:29:13;100741.78;;;12.05;86.67
80511;BME280;69840;53.040;8.600;2023-05-10T03:31:42;100741.28;;;12.10;86.77
80511;BME280;69840;53.040;8.600;2023-05-10T03:34:10;100742.56;;;12.14;87.17
80511;BME280;69840;53.040;8.600;2023-05-10T03:36:37;100740.56;;;12.16;87.03
80511;BME280;69840;53.040;8.600;2023-05-10T03:39:05;100739.56;;;12.17;86.63
80511;BME280;69840;53.040;8.600;2023-05-10T03:41:32;100736.44;;;12.13;87.37
80511;BME280;69840;53.040;8.600;2023-05-10T03:44:00;100737.97;;;12.08;87.82
80511;BME280;69840;53.040;8.600;2023-05-10T03:46:28;100736.97;;;12.09;87.74
80511;BME280;69840;53.040;8.600;2023-05-10T03:48:55;100745.94;;;12.08;87.51
80511;BME280;69840;53.040;8.600;2023-05-10T03:51:23;100749.59;;;11.99;87.50
80511;BME280;69840;53.040;8.600;2023-05-10T03:53:51;100743.13;;;12.01;88.26
80511;BME280;69840;53.040;8.600;2023-05-10T03:56:19;100740.47;;;12.01;88.12
80511;BME280;69840;53.040;8.600;2023-05-10T03:58:46;100736.34;;;11.99;88.17
80511;BME280;69840;53.040;8.600;2023-05-10T04:01:14;100739.31;;;12.04;88.63
80511;BME280;69840;53.040;8.600;2023-05-10T04:03:41;100739.50;;;12.02;87.88
80511;BME280;69840;53.040;8.600;2023-05-10T04:06:09;100740.47;;;12.01;87.91
80511;BME280;69840;53.040;8.600;2023-05-10T04:08:36;100735.84;;;12.03;87.54
80511;BME280;69840;53.040;8.600;2023-05-10T04:11:05;100730.06;;;12.00;87.72
80511;BME280;69840;53.040;8.600;2023-05-10T04:13:33;100731.59;;;11.94;87.36
80511;BME280;69840;53.040;8.600;2023-05-10T04:16:01;100739.72;;;11.92;87.82
80511;BME280;69840;53.040;8.600;2023-05-10T04:18:28;100738.88;;;11.92;87.69
80511;BME280;69840;53.040;8.600;2023-05-10T04:20:56;100740.53;;;11.93;87.79
80511;BME280;69840;53.040;8.600;2023-05-10T04:23:23;100744.34;;;11.90;87.96
80511;BME280;69840;53.040;8.600;2023-05-10T04:25:50;100743.03;;;11.86;88.73
80511;BME280;69840;53.040;8.600;2023-05-10T04:28:18;100745.56;;;11.72;88.16
80511;BME280;69840;53.040;8.600;2023-05-10T04:30:46;100765.78;;;11.65;88.45
80511;BME280;69840;53.040;8.600;2023-05-10T04:33:13;100754.16;;;11.74;89.39
80511;BME280;69840;53.040;8.600;2023-05-10T04:35:41;100761.28;;;11.73;89.06
80511;BME280;69840;53.040;8.600;2023-05-10T04:38:08;100758.97;;;11.70;89.31
80511;BME280;69840;53.040;8.600;2023-05-10T04:40:35;100752.56;;;11.65;89.33
80511;BME280;69840;53.040;8.600;2023-05-10T04:43:03;100761.13;;;11.67;89.63
80511;BME280;69840;53.040;8.600;2023-05-10T04:45:31;100764.97;;;11.64;89.36
80511;BME280;69840;53.040;8.600;2023-05-10T04:47:58;100762.63;;;11.69;89.87
80511;BME280;69840;53.040;8.600;2023-05-10T04:50:25;100764.59;;;11.75;90.03
80511;BME280;69840;53.040;8.600;2023-05-10T04:52:53;100762.09;;;11.74;89.88
80511;BME280;69840;53.040;8.600;2023-05-10T04:55:20;100764.28;;;11.78;90.17
80511;BME280;69840;53.040;8.600;2023-05-10T04:57:48;100772.53;;;11.75;89.95
80511;BME280;69840;53.040;8.600;2023-05-10T05:00:15;100773.88;;;11.79;90.28
80511;BME280;69840;53.040;8.600;2023-05-10T05:02:43;100780.16;;;11.78;90.19
80511;BME280;69840;53.040;8.600;2023-05-10T05:05:12;100774.88;;;11.78;90.26
80511;BME280;69840;53.040;8.600;2023-05-10T05:07:39;100771.84;;;11.81;90.42
80511;BME280;69840;53.040;8.600;2023-05-10T05:10:07;100776.31;;;11.89;90.41
80511;BME280;69840;53.040;8.600;2023-05-10T05:12:35;100781.44;;;11.90;90.25
80511;BME280;69840;53.040;8.600;2023-05-10T05:15:03;100784.19;;;11.97;90.75
80511;BME280;69840;53.040;8.600;2023-05-10T05:17:30;100785.19;;;12.04;90.65
80511;BME280;69840;53.040;8.600;2023-05-10T05:19:58;100785.00;;;12.06;90.55
80511;BME280;69840;53.040;8.600;2023-05-10T05:22:26;100790.13;;;12.07;90.36
80511;BME280;69840;53.040;8.600;2023-05-10T05:24:54;100788.97;;;12.10;90.41
80511;BME280;69840;53.040;8.600;2023-05-10T05:27:22;100788.75;;;12.19;90.64
80511;BME280;69840;53.040;8.600;2023-05-10T05:29:50;100787.31;;;12.09;90.00
80511;BME280;69840;53.040;8.600;2023-05-10T05:32:19;100804.50;;;12.13;90.23
80511;BME280;69840;53.040;8.600;2023-05-10T05:34:47;100801.81;;;12.21;91.05
80511;BME280;69840;53.040;8.600;2023-05-10T05:37:18;100800.94;;;12.28;90.92
80511;BME280;69840;53.040;8.600;2023-05-10T05:39:46;100802.13;;;12.26;90.67
80511;BME280;69840;53.040;8.600;2023-05-10T05:42:14;100803.13;;;12.25;91.07
80511;BME280;69840;53.040;8.600;2023-05-10T05:44:41;100807.38;;;12.34;91.21
80511;BME280;69840;53.040;8.600;2023-05-10T05:47:09;100808.06;;;12.28;90.65
80511;BME280;69840;53.040;8.600;2023-05-10T05:49:36;100813.50;;;12.35;91.02
80511;BME280;69840;53.040;8.600;2023-05-10T05:52:04;100807.19;;;12.36;90.79
80511;BME280;69840;53.040;8.600;2023-05-10T05:54:31;100814.50;;;12.34;91.12
80511;BME280;69840;53.040;8.600;2023-05-10T05:57:00;100814.81;;;12.39;91.39
80511;BME280;69840;53.040;8.600;2023-05-10T05:59:28;100820.88;;;12.47;91.40
80511;BME280;69840;53.040;8.600;2023-05-10T06:01:55;100823.50;;;12.55;91.35
80511;BME280;69840;53.040;8.600;2023-05-10T06:04:22;100831.94;;;12.59;91.18
80511;BME280;69840;53.040;8.600;2023-05-10T06:06:50;100832.03;;;12.65;91.81
80511;BME280;69840;53.040;8.600;2023-05-10T06:09:17;100832.91;;;12.81;91.73
80511;BME280;69840;53.040;8.600;2023-05-10T06:11:45;100837.81;;;12.92;91.80
80511;BME280;69840;53.040;8.600;2023-05-10T06:14:12;100829.09;;;13.06;91.55
80511;BME280;69840;53.040;8.600;2023-05-10T06:16:40;100841.97;;;13.17;91.31
80511;BME280;69840;53.040;8.600;2023-05-10T06:19:07;100845.81;;;13.29;91.22
80511;BME280;69840;53.040;8.600;2023-05-10T06:21:34;100835.31;;;13.36;90.57
80511;BME280;69840;53.040;8.600;2023-05-10T06:24:02;100836.22;;;13.43;90.58
80511;BME280;69840;53.040;8.600;2023-05-10T06:26:29;100838.66;;;13.53;89.56
80511;BME280;69840;53.040;8.600;2023-05-10T06:28:57;100835.59;;;13.56;89.05
80511;BME280;69840;53.040;8.600;2023-05-10T06:31:25;100840.91;;;13.56;88.61
80511;BME280;69840;53.040;8.600;2023-05-10T06:33:52;100842.03;;;13.61;88.75
80511;BME280;69840;53.040;8.600;2023-05-10T06:36:21;100844.22;;;13.58;88.49
80511;BME280;69840;53.040;8.600;2023-05-10T06:38:48;100849.09;;;13.69;88.38
80511;BME280;69840;53.040;8.600;2023-05-10T06:41:16;100853.38;;;13.70;88.43
80511;BME280;69840;53.040;8.600;2023-05-10T06:43:43;100853.84;;;13.74;87.79
80511;BME280;69840;53.040;8.600;2023-05-10T06:46:11;100863.56;;;13.81;88.32
80511;BME280;69840;53.040;8.600;2023-05-10T06:48:38;100865.47;;;13.87;87.55
80511;BME280;69840;53.040;8.600;2023-05-10T06:51:06;100867.06;;;13.82;87.69
80511;BME280;69840;53.040;8.600;2023-05-10T06:53:33;100868.53;;;13.84;87.58
80511;BME280;69840;53.040;8.600;2023-05-10T06:56:00;100866.78;;;13.77;87.58
80511;BME280;69840;53.040;8.600;2023-05-10T06:58:28;100869.59;;;13.75;87.85
80511;BME280;69840;53.040;8.600;2023-05-10T07:01:02;100880.88;;;13.77;87.95
80511;BME280;69840;53.040;8.600;2023-05-10T07:03:29;100873.38;;;13.81;88.57
80511;BME280;69840;53.040;8.600;2023-05-10T07:06:03;100878.56;;;13.74;88.14
80511;BME280;69840;53.040;8.600;2023-05-10T07:08:31;100880.03;;;13.62;87.96
80511;BME280;69840;53.040;8.600;2023-05-10T07:11:02;100885.06;;;13.72;87.12
80511;BME280;69840;53.040;8.600;2023-05-10T07:13:31;100887.66;;;13.80;87.53
80511;BME280;69840;53.040;8.600;2023-05-10T07:15:59;100886.91;;;13.86;87.85
80511;BME280;69840;53.040;8.600;2023-05-10T07:18:27;100901.59;;;13.96;87.85
80511;BME280;69840;53.040;8.600;2023-05-10T07:20:55;100894.63;;;13.95;86.96
80511;BME280;69840;53.040;8.600;2023-05-10T07:23:23;100898.66;;;14.06;87.05
80511;BME280;69840;53.040;8.600;2023-05-10T07:25:51;100902.06;;;14.15;86.45
80511;BME280;69840;53.040;8.600;2023-05-10T07:28:19;100900.75;;;14.25;86.77
80511;BME280;69840;53.040;8.600;2023-05-10T07:30:46;100907.38;;;14.29;85.72
80511;BME280;69840;53.040;8.600;2023-05-10T07:33:14;100909.19;;;14.29;85.49
80511;BME280;69840;53.040;8.600;2023-05-10T07:35:42;100912.75;;;14.36;86.14
80511;BME280;69840;53.040;8.600;2023-05-10T07:38:10;100915.59;;;14.49;85.76
80511;BME280;69840;53.040;8.600;2023-05-10T07:40:37;100925.06;;;14.52;84.95
80511;BME280;69840;53.040;8.600;2023-05-10T07:43:04;100909.03;;;14.30;85.19
80511;BME280;69840;53.040;8.600;2023-05-10T07:45:33;100917.25;;;14.50;85.71
80511;BME280;69840;53.040;8.600;2023-05-10T07:48:00;100920.09;;;14.63;84.34
80511;BME280;69840;53.040;8.600;2023-05-10T07:50:28;100918.31;;;14.70;83.82
80511;BME280;69840;53.040;8.600;2023-05-10T07:52:55;100927.38;;;14.91;84.26
80511;BME280;69840;53.040;8.600;2023-05-10T07:55:23;100924.28;;;15.08;83.94
80511;BME280;69840;53.040;8.600;2023-05-10T07:57:50;100926.28;;;15.28;83.00
80511;BME280;69840;53.040;8.600;2023-05-10T08:00:19;100922.28;;;15.60;82.26
80511;BME280;69840;53.040;8.600;2023-05-10T08:02:47;100928.75;;;15.72;82.70
80511;BME280;69840;53.040;8.600;2023-05-10T08:05:14;100926.16;;;15.36;80.10
80511;BME280;69840;53.040;8.600;2023-05-10T08:07:42;100938.00;;;14.91;83.08
80511;BME280;69840;53.040;8.600;2023-05-10T08:10:10;100933.28;;;15.07;82.13
80511;BME280;69840;53.040;8.600;2023-05-10T08:12:38;100941.91;;;15.09;81.89
80511;BME280;69840;53.040;8.600;2023-05-10T08:15:06;100939.69;;;15.34;82.85
80511;BME280;69840;53.040;8.600;2023-05-10T08:17:33;100943.34;;;15.33;80.21
80511;BME280;69840;53.040;8.600;2023-05-10T08:20:01;100940.94;;;15.38;80.86
80511;BME280;69840;53.040;8.600;2023-05-10T08:22:28;100947.78;;;15.48;81.16
80511;BME280;69840;53.040;8.600;2023-05-10T08:24:56;100939.06;;;15.82;79.48
80511;BME280;69840;53.040;8.600;2023-05-10T08:27:23;100950.81;;;15.87;78.57
80511;BME280;69840;53.040;8.600;2023-05-10T08:29:51;100946.91;;;16.18;78.53
80511;BME280;69840;53.040;8.600;2023-05-10T08:32:18;100945.25;;;16.17;75.83
80511;BME280;69840;53.040;8.600;2023-05-10T08:34:46;100942.41;;;15.90;76.98
80511;BME280;69840;53.040;8.600;2023-05-10T08:37:13;100944.75;;;16.41;76.44
80511;BME280;69840;53.040;8.600;2023-05-10T08:39:41;100944.31;;;16.37;75.46
80511;BME280;69840;53.040;8.600;2023-05-10T08:42:08;100950.13;;;16.47;75.19
80511;BME280;69840;53.040;8.600;2023-05-10T08:44:36;100953.56;;;16.35;74.48
80511;BME280;69840;53.040;8.600;2023-05-10T08:47:05;100954.97;;;16.31;74.07
80511;BME280;69840;53.040;8.600;2023-05-10T08:49:33;100951.88;;;16.27;76.64
80511;BME280;69840;53.040;8.600;2023-05-10T08:52:05;100955.69;;;16.11;75.92
80511;BME280;69840;53.040;8.600;2023-05-10T08:54:34;100962.09;;;16.24;76.41
80511;BME280;69840;53.040;8.600;2023-05-10T08:57:01;100962.16;;;15.74;75.87
80511;BME280;69840;53.040;8.600;2023-05-10T08:59:29;100956.34;;;15.86;75.58
80511;BME280;69840;53.040;8.600;2023-05-10T09:02:00;100972.88;;;16.02;79.34
80511;BME280;69840;53.040;8.600;2023-05-10T09:04:29;100978.53;;;16.21;76.56
80511;BME280;69840;53.040;8.600;2023-05-10T09:06:57;100978.91;;;16.18;74.92
80511;BME280;69840;53.040;8.600;2023-05-10T09:09:25;100984.25;;;16.24;75.93
80511;BME280;69840;53.040;8.600;2023-05-10T09:11:53;100983.75;;;15.79;77.77
80511;BME280;69840;53.040;8.600;2023-05-10T09:14:22;100990.56;;;15.61;78.18
80511;BME280;69840;53.040;8.600;2023-05-10T09:16:50;100986.66;;;14.85;79.23
80511;BME280;69840;53.040;8.600;2023-05-10T09:19:18;100995.19;;;15.16;78.86
80511;BME280;69840;53.040;8.600;2023-05-10T09:21:45;100994.03;;;15.40;79.21
80511;BME280;69840;53.040;8.600;2023-05-10T09:24:13;100995.19;;;15.73;76.38
80511;BME280;69840;53.040;8.600;2023-05-10T09:26:47;100997.91;;;15.80;78.16
80511;BME280;69840;53.040;8.600;2023-05-10T09:29:15;100999.34;;;15.83;76.74
80511;BME280;69840;53.040;8.600;2023-05-10T09:31:48;100996.22;;;15.72;76.47
80511;BME280;69840;53.040;8.600;2023-05-10T09:34:20;101002.84;;;15.83;75.46
80511;BME280;69840;53.040;8.600;2023-05-10T09:36:54;101004.47;;;15.56;76.43
80511;BME280;69840;53.040;8.600;2023-05-10T09:39:32;101008.56;;;15.80;78.39
80511;BME280;69840;53.040;8.600;2023-05-10T09:42:02;101006.53;;;15.82;76.68
80511;BME280;69840;53.040;8.600;2023-05-10T09:44:30;101007.06;;;15.71;78.85
80511;BME280;69840;53.040;8.600;2023-05-10T09:46:58;101015.69;;;15.73;78.12
80511;BME280;69840;53.040;8.600;2023-05-10T09:49:25;101013.69;;;15.39;78.07
80511;BME280;69840;53.040;8.600;2023-05-10T09:52:06;101018.59;;;14.85;80.57
80511;BME280;69840;53.040;8.600;2023-05-10T09:54:34;101016.47;;;15.31;78.00
80511;BME280;69840;53.040;8.600;2023-05-10T09:57:01;101021.31;;;15.42;78.73
80511;BME280;69840;53.040;8.600;2023-05-10T09:59:29;101024.69;;;15.72;77.90
80511;BME280;69840;53.040;8.600;2023-05-10T10:01:58;101020.19;;;15.72;77.43
80511;BME280;69840;53.040;8.600;2023-05-10T10:04:26;101019.72;;;15.90;78.02
80511;BME280;69840;53.040;8.600;2023-05-10T10:07:04;101022.72;;;16.08;76.23
80511;BME280;69840;53.040;8.600;2023-05-10T10:09:33;101025.47;;;16.15;76.33
80511;BME280;69840;53.040;8.600;2023-05-10T10:12:02;101020.94;;;16.16;75.83
80511;BME280;69840;53.040;8.600;2023-05-10T10:14:29;101029.38;;;16.19;76.21
80511;BME280;69840;53.040;8.600;2023-05-10T10:17:00;101028.84;;;16.99;75.22
80511;BME280;69840;53.040;8.600;2023-05-10T10:19:33;101037.56;;;17.34;72.82
80511;BME280;69840;53.040;8.600;2023-05-10T10:22:00;101025.28;;;17.46;70.92
80511;BME280;69840;53.040;8.600;2023-05-10T10:24:28;101027.16;;;17.59;70.76
80511;BME280;69840;53.040;8.600;2023-05-10T10:30:25;101032.88;;;17.56;71.31
80511;BME280;69840;53.040;8.600;2023-05-10T10:33:06;101039.56;;;17.93;70.17
80511;BME280;69840;53.040;8.600;2023-05-10T10:35:39;101033.38;;;17.86;68.53
80511;BME280;69840;53.040;8.600;2023-05-10T10:38:08;101030.69;;;17.73;67.98
80511;BME280;69840;53.040;8.600;2023-05-10T10:40:35;101042.41;;;17.72;69.76
80511;BME280;69840;53.040;8.600;2023-05-10T10:43:26;101039.59;;;17.32;70.25
80511;BME280;69840;53.040;8.600;2023-05-10T10:46:16;101037.47;;;17.82;68.80
80511;BME280;69840;53.040;8.600;2023-05-10T10:49:08;101029.03;;;17.85;66.97
80511;BME280;69840;53.040;8.600;2023-05-10T10:51:37;101035.41;;;17.84;69.43
80511;BME280;69840;53.040;8.600;2023-05-10T10:54:11;101028.63;;;17.68;67.39
80511;BME280;69840;53.040;8.600;2023-05-10T10:56:39;101030.69;;;17.86;71.67
80511;BME280;69840;53.040;8.600;2023-05-10T10:59:07;101028.84;;;18.00;69.95
80511;BME280;69840;53.040;8.600;2023-05-10T11:01:34;101032.56;;;17.92;66.83
80511;BME280;69840;53.040;8.600;2023-05-10T11:06:34;101031.28;;;18.41;66.10
80511;BME280;69840;53.040;8.600;2023-05-10T11:09:07;101034.53;;;16.83;70.81
80511;BME280;69840;53.040;8.600;2023-05-10T11:11:36;101032.75;;;17.03;71.41
80511;BME280;69840;53.040;8.600;2023-05-10T11:14:05;101037.41;;;17.42;71.59
80511;BME280;69840;53.040;8.600;2023-05-10T11:16:43;101038.56;;;17.20;71.02
80511;BME280;69840;53.040;8.600;2023-05-10T11:19:12;101044.16;;;17.38;70.16
80511;BME280;69840;53.040;8.600;2023-05-10T11:21:51;101050.56;;;17.44;70.29
80511;BME280;69840;53.040;8.600;2023-05-10T11:24:21;101053.28;;;17.03;71.28
80511;BME280;69840;53.040;8.600;2023-05-10T11:26:50;101064.38;;;16.09;75.07
80511;BME280;69840;53.040;8.600;2023-05-10T11:29:18;101063.03;;;15.71;77.54
80511;BME280;69840;53.040;8.600;2023-05-10T11:31:46;101071.56;;;15.30;78.80
80511;BME280;69840;53.040;8.600;2023-05-10T11:34:29;101074.41;;;15.29;80.90
80511;BME280;69840;53.040;8.600;2023-05-10T11:36:57;101072.63;;;15.51;80.79
80511;BME280;69840;53.040;8.600;2023-05-10T11:39:29;101069.94;;;15.87;80.59
80511;BME280;69840;53.040;8.600;2023-05-10T11:41:57;101072.38;;;16.09;79.39
80511;BME280;69840;53.040;8.600;2023-05-10T11:44:34;101068.19;;;16.49;78.81
80511;BME280;69840;53.040;8.600;2023-05-10T11:47:02;101073.69;;;17.17;77.67
80511;BME280;69840;53.040;8.600;2023-05-10T11:49:29;101076.81;;;17.27;74.39
80511;BME280;69840;53.040;8.600;2023-05-10T11:52:05;101072.41;;;16.65;77.90
80511;BME280;69840;53.040;8.600;2023-05-10T11:54:32;101073.22;;;16.38;77.04
80511;BME280;69840;53.040;8.600;2023-05-10T11:57:00;101086.59;;;16.72;76.95
80511;BME280;69840;53.040;8.600;2023-05-10T11:59:27;101091.94;;;17.07;76.50
80511;BME280;69840;53.040;8.600;2023-05-10T12:01:55;101088.75;;;16.83;74.94
80511;BME280;69840;53.040;8.600;2023-05-10T12:04:23;101089.84;;;16.96;76.06
80511;BME280;69840;53.040;8.600;2023-05-10T12:06:50;101100.19;;;16.77;75.81
80511;BME280;69840;53.040;8.600;2023-05-10T12:09:18;101096.94;;;16.54;75.93
80511;BME280;69840;53.040;8.600;2023-05-10T12:11:49;101107.47;;;16.62;76.62
80511;BME280;69840;53.040;8.600;2023-05-10T12:14:16;101108.59;;;16.74;76.00
80511;BME280;69840;53.040;8.600;2023-05-10T12:16:44;101108.75;;;17.55;75.79
80511;BME280;69840;53.040;8.600;2023-05-10T12:19:11;101110.72;;;17.94;72.87
80511;BME280;69840;53.040;8.600;2023-05-10T12:21:38;101123.03;;;17.82;72.75
80511;BME280;69840;53.040;8.600;2023-05-10T12:24:07;101115.72;;;17.43;72.45
80511;BME280;69840;53.040;8.600;2023-05-10T12:26:35;101119.22;;;17.02;74.45
80511;BME280;69840;53.040;8.600;2023-05-10T12:29:16;101129.38;;;16.58;75.20
80511;BME280;69840;53.040;8.600;2023-05-10T12:31:58;101131.53;;;16.97;72.88
80511;BME280;69840;53.040;8.600;2023-05-10T12:34:33;101132.72;;;17.29;72.67
80511;BME280;69840;53.040;8.600;2023-05-10T12:37:02;101137.91;;;17.43;72.44
80511;BME280;69840;53.040;8.600;2023-05-10T12:39:44;101138.06;;;17.76;72.39
80511;BME280;69840;53.040;8.600;2023-05-10T12:42:11;101147.72;;;17.84;72.73
80511;BME280;69840;53.040;8.600;2023-05-10T12:44:39;101143.78;;;17.67;72.26
80511;BME280;69840;53.040;8.600;2023-05-10T12:47:07;101144.88;;;16.97;73.15
80511;BME280;69840;53.040;8.600;2023-05-10T12:49:34;101153.00;;;16.82;74.38
80511;BME280;69840;53.040;8.600;2023-05-10T12:52:02;101159.03;;;17.32;73.61
80511;BME280;69840;53.040;8.600;2023-05-10T12:54:29;101157.56;;;17.70;71.84
80511;BME280;69840;53.040;8.600;2023-05-10T12:56:57;101153.00;;;17.64;69.54
80511;BME280;69840;53.040;8.600;2023-05-10T12:59:24;101153.28;;;17.35;71.15
80511;BME280;69840;53.040;8.600;2023-05-10T13:01:52;101160.06;;;17.31;73.41
80511;BME280;69840;53.040;8.600;2023-05-10T13:04:19;101168.81;;;17.11;71.28
80511;BME280;69840;53.040;8.600;2023-05-10T13:06:47;101165.38;;;17.24;71.53
80511;BME280;69840;53.040;8.600;2023-05-10T13:09:15;101168.88;;;16.90;71.62
80511;BME280;69840;53.040;8.600;2023-05-10T13:11:42;101167.72;;;16.71;72.08
80511;BME280;69840;53.040;8.600;2023-05-10T13:14:09;101172.06;;;16.51;73.28
80511;BME280;69840;53.040;8.600;2023-05-10T13:16:37;101174.91;;;16.49;73.32
80511;BME280;69840;53.040;8.600;2023-05-10T13:19:04;101178.06;;;16.81;74.14